sensor_id;sensor_type;location;lat;lon;timestamp;temperature;humidity
4520;DHT22;2272;49.226;8.108;2023-10-09T10:35:31;20.90;99.90
4520;DHT22;2272;49.226;8.108;2023-10-09T10:38:22;21.00;99.90
4520;DHT22;2272;49.226;8.108;2023-10-09T10:40:49;20.90;99.90
4520;DHT22;2272;49.226;8.108;2023-10-09T10:43:23;21.00;99.90
4520;DHT22;2272;49.226;8.108;2023-10-09T10:46:02;21.00;99.90
4520;DHT22;2272;49.226;8.108;2023-10-09T10:48:34;21.20;99.90
4520;DHT22;2272;49.226;8.108;2023-10-09T10:51:05;21.20;99.90
4520;DHT22;2272;49.226;8.108;2023-10-09T10:53:37;21.30;99.90
4520;DHT22;2272;49.226;8.108;2023-10-09T10:56:39;21.40;99.90
4520;DHT22;2272;49.226;8.108;2023-10-09T10:59:14;21.30;99.90
4520;DHT22;2272;49.226;8.108;2023-10-09T11:01:49;21.30;99.90
4520;DHT22;2272;49.226;8.108;2023-10-09T11:04:40;21.50;99.90
4520;DHT22;2272;49.226;8.108;2023-10-09T11:10:09;21.70;99.90
4520;DHT22;2272;49.226;8.108;2023-10-09T11:12:45;21.80;99.90
4520;DHT22;2272;49.226;8.108;2023-10-09T11:15:35;21.90;99.90
4520;DHT22;2272;49.226;8.108;2023-10-09T11:18:13;22.00;99.90
4520;DHT22;2272;49.226;8.108;2023-10-09T11:20:54;22.10;99.90
4520;DHT22;2272;49.226;8.108;2023-10-09T11:23:51;22.10;99.90
4520;DHT22;2272;49.226;8.108;2023-10-09T11:26:26;22.20;99.90
4520;DHT22;2272;49.226;8.108;2023-10-09T11:29:07;22.10;99.90
4520;DHT22;2272;49.226;8.108;2023-10-09T11:31:40;22.10;99.90
4520;DHT22;2272;49.226;8.108;2023-10-09T11:34:20;22.10;99.90
4520;DHT22;2272;49.226;8.108;2023-10-09T11:36:56;22.10;99.90
4520;DHT22;2272;49.226;8.108;2023-10-09T11:39:25;22.20;99.90
4520;DHT22;2272;49.226;8.108;2023-10-09T11:42:07;22.80;99.90
4520;DHT22;2272;49.226;8.108;2023-10-09T11:44:40;22.90;99.90
4520;DHT22;2272;49.226;8.108;2023-10-09T11:47:10;23.20;99.90
4520;DHT22;2272;49.226;8.108;2023-10-09T11:49:58;23.50;99.90
4520;DHT22;2272;49.226;8.108;2023-10-09T11:52:56;25.00;99.90
4520;DHT22;2272;49.226;8.108;2023-10-09T11:55:35;24.00;99.90
4520;DHT22;2272;49.226;8.108;2023-10-09T11:58:02;25.00;99.90
4520;DHT22;2272;49.226;8.108;2023-10-09T12:00:30;24.80;99.90
4520;DHT22;2272;49.226;8.108;2023-10-09T12:03:08;24.60;99.90
4520;DHT22;2272;49.226;8.108;2023-10-09T12:05:35;24.10;99.90
4520;DHT22;2272;49.226;8.108;2023-10-09T12:08:03;23.90;99.90
4520;DHT22;2272;49.226;8.108;2023-10-09T12:10:37;23.50;99.90
4520;DHT22;2272;49.226;8.108;2023-10-09T12:13:09;23.10;99.90
4520;DHT22;2272;49.226;8.108;2023-10-09T12:15:36;23.00;99.90
4520;DHT22;2272;49.226;8.108;2023-10-09T12:18:06;22.90;99.90
4520;DHT22;2272;49.226;8.108;2023-10-09T12:20:40;22.90;99.90
4520;DHT22;2272;49.226;8.108;2023-10-09T12:23:07;23.00;99.90
4520;DHT22;2272;49.226;8.108;2023-10-09T12:25:39;23.10;99.90
4520;DHT22;2272;49.226;8.108;2023-10-09T12:28:10;23.20;99.90
4520;DHT22;2272;49.226;8.108;2023-10-09T12:30:38;23.50;99.90
4520;DHT22;2272;49.226;8.108;2023-10-09T12:33:06;23.30;99.90
4520;DHT22;2272;49.226;8.108;2023-10-09T12:35:37;23.30;99.90
4520;DHT22;2272;49.226;8.108;2023-10-09T12:38:04;23.30;99.90
4520;DHT22;2272;49.226;8.108;2023-10-09T12:40:44;23.40;99.90
4520;DHT22;2272;49.226;8.108;2023-10-09T12:43:19;23.60;99.90
4520;DHT22;2272;49.226;8.108;2023-10-09T12:45:47;23.70;99.90
4520;DHT22;2272;49.226;8.108;2023-10-09T12:48:15;23.80;99.90
4520;DHT22;2272;49.226;8.108;2023-10-09T12:50:42;23.90;99.90
4520;DHT22;2272;49.226;8.108;2023-10-09T12:53:10;23.90;99.90
4520;DHT22;2272;49.226;8.108;2023-10-09T12:55:43;24.10;99.90
4520;DHT22;2272;49.226;8.108;2023-10-09T12:58:11;24.30;99.90
4520;DHT22;2272;49.226;8.108;2023-10-09T13:00:43;24.60;99.90
4520;DHT22;2272;49.226;8.108;2023-10-09T13:03:10;24.70;99.90
4520;DHT22;2272;49.226;8.108;2023-10-09T13:05:53;24.90;99.90
4520;DHT22;2272;49.226;8.108;2023-10-09T13:08:23;25.10;99.90
4520;DHT22;2272;49.226;8.108;2023-10-09T13:10:57;25.30;99.90
4520;DHT22;2272;49.226;8.108;2023-10-09T13:13:30;25.50;99.90
4520;DHT22;2272;49.226;8.108;2023-10-09T13:16:12;25.90;99.90
4520;DHT22;2272;49.226;8.108;2023-10-09T13:18:46;25.60;99.90
4520;DHT22;2272;49.226;8.108;2023-10-09T13:21:16;25.40;99.90
4520;DHT22;2272;49.226;8.108;2023-10-09T13:23:43;25.30;99.90
4520;DHT22;2272;49.226;8.108;2023-10-09T13:26:13;25.30;99.90
4520;DHT22;2272;49.226;8.108;2023-10-09T13:28:54;25.30;99.90
4520;DHT22;2272;49.226;8.108;2023-10-09T13:31:24;25.40;99.90
4520;DHT22;2272;49.226;8.108;2023-10-09T13:33:53;25.40;99.90
4520;DHT22;2272;49.226;8.108;2023-10-09T13:36:21;25.40;99.90
4520;DHT22;2272;49.226;8.108;2023-10-09T13:38:53;25.30;99.90
4520;DHT22;2272;49.226;8.108;2023-10-09T13:41:21;25.30;99.90
4520;DHT22;2272;49.226;8.108;2023-10-09T13:43:51;25.40;99.90
4520;DHT22;2272;49.226;8.108;2023-10-09T13:46:18;25.50;99.90
4520;DHT22;2272;49.226;8.108;2023-10-09T13:48:45;25.60;99.90
4520;DHT22;2272;49.226;8.108;2023-10-09T13:51:15;25.70;99.90
4520;DHT22;2272;49.226;8.108;2023-10-09T13:53:44;26.40;99.90
4520;DHT22;2272;49.226;8.108;2023-10-09T13:56:15;25.70;99.90
4520;DHT22;2272;49.226;8.108;2023-10-09T13:58:45;26.00;99.90
4520;DHT22;2272;49.226;8.108;2023-10-09T14:01:12;25.60;99.90
4520;DHT22;2272;49.226;8.108;2023-10-09T14:03:47;25.90;99.90
4520;DHT22;2272;49.226;8.108;2023-10-09T14:06:18;26.50;99.90
4520;DHT22;2272;49.226;8.108;2023-10-09T14:08:56;25.10;99.90
4520;DHT22;2272;49.226;8.108;2023-10-09T14:11:23;25.50;99.90
4520;DHT22;2272;49.226;8.108;2023-10-09T14:13:50;25.70;99.90
4520;DHT22;2272;49.226;8.108;2023-10-09T14:16:17;25.80;99.90
4520;DHT22;2272;49.226;8.108;2023-10-09T14:18:54;26.00;99.90
4520;DHT22;2272;49.226;8.108;2023-10-09T14:21:24;26.20;99.90
4520;DHT22;2272;49.226;8.108;2023-10-09T14:23:54;26.10;99.90
4520;DHT22;2272;49.226;8.108;2023-10-09T14:26:27;26.00;99.90
4520;DHT22;2272;49.226;8.108;2023-10-09T14:28:55;25.70;99.90
4520;DHT22;2272;49.226;8.108;2023-10-09T14:31:24;25.40;99.90
4520;DHT22;2272;49.226;8.108;2023-10-09T14:33:55;25.20;99.90
4520;DHT22;2272;49.226;8.108;2023-10-09T14:36:27;24.90;99.90
4520;DHT22;2272;49.226;8.108;2023-10-09T14:38:59;24.70;99.90
4520;DHT22;2272;49.226;8.108;2023-10-09T14:41:26;24.20;99.90
4520;DHT22;2272;49.226;8.108;2023-10-09T14:43:53;24.40;99.90
4520;DHT22;2272;49.226;8.108;2023-10-09T14:46:20;24.30;99.90
4520;DHT22;2272;49.226;8.108;2023-10-09T14:48:51;24.20;99.90
4520;DHT22;2272;49.226;8.108;2023-10-09T14:51:21;24.10;99.90
4520;DHT22;2272;49.226;8.108;2023-10-09T14:53:54;24.10;99.90
4520;DHT22;2272;49.226;8.108;2023-10-09T14:56:23;24.10;99.90
4520;DHT22;2272;49.226;8.108;2023-10-09T14:58:57;24.10;99.90
4520;DHT22;2272;49.226;8.108;2023-10-09T15:01:24;24.10;99.90
4520;DHT22;2272;49.226;8.108;2023-10-09T15:03:55;24.00;99.90
4520;DHT22;2272;49.226;8.108;2023-10-09T15:06:26;24.00;99.90
4520;DHT22;2272;49.226;8.108;2023-10-09T15:08:55;23.90;99.90
4520;DHT22;2272;49.226;8.108;2023-10-09T15:11:24;23.90;99.90
4520;DHT22;2272;49.226;8.108;2023-10-09T15:13:51;23.80;99.90
4520;DHT22;2272;49.226;8.108;2023-10-09T15:16:19;23.70;99.90
4520;DHT22;2272;49.226;8.108;2023-10-09T15:18:47;23.60;99.90
4520;DHT22;2272;49.226;8.108;2023-10-09T15:21:18;23.60;99.90
4520;DHT22;2272;49.226;8.108;2023-10-09T15:23:49;23.40;99.90
4520;DHT22;2272;49.226;8.108;2023-10-09T15:26:20;23.40;99.90
4520;DHT22;2272;49.226;8.108;2023-10-09T15:28:48;23.30;99.90
4520;DHT22;2272;49.226;8.108;2023-10-09T15:31:16;23.30;99.90
4520;DHT22;2272;49.226;8.108;2023-10-09T15:33:44;23.30;99.90
4520;DHT22;2272;49.226;8.108;2023-10-09T15:36:14;23.20;99.90
4520;DHT22;2272;49.226;8.108;2023-10-09T15:38:44;22.70;99.90
4520;DHT22;2272;49.226;8.108;2023-10-09T15:41:13;23.10;99.90
4520;DHT22;2272;49.226;8.108;2023-10-09T15:43:42;23.00;99.90
4520;DHT22;2272;49.226;8.108;2023-10-09T15:46:26;23.00;99.90
4520;DHT22;2272;49.226;8.108;2023-10-09T15:48:59;22.90;99.90
4520;DHT22;2272;49.226;8.108;2023-10-09T15:51:27;22.70;99.90
4520;DHT22;2272;49.226;8.108;2023-10-09T15:53:57;22.60;99.90
4520;DHT22;2272;49.226;8.108;2023-10-09T15:56:28;22.60;99.90
4520;DHT22;2272;49.226;8.108;2023-10-09T15:58:54;22.50;99.90
4520;DHT22;2272;49.226;8.108;2023-10-09T16:01:22;22.40;99.90
4520;DHT22;2272;49.226;8.108;2023-10-09T16:03:49;22.40;99.90
4520;DHT22;2272;49.226;8.108;2023-10-09T16:06:17;22.30;99.90
4520;DHT22;2272;49.226;8.108;2023-10-09T16:08:46;22.20;99.90
4520;DHT22;2272;49.226;8.108;2023-10-09T16:11:16;22.10;99.90
4520;DHT22;2272;49.226;8.108;2023-10-09T16:13:45;22.00;99.90
4520;DHT22;2272;49.226;8.108;2023-10-09T16:16:12;21.90;99.90
4520;DHT22;2272;49.226;8.108;2023-10-09T16:18:39;21.70;99.90
4520;DHT22;2272;49.226;8.108;2023-10-09T16:21:06;21.70;99.90
4520;DHT22;2272;49.226;8.108;2023-10-09T16:23:37;21.50;99.90
4520;DHT22;2272;49.226;8.108;2023-10-09T16:26:04;21.40;99.90
4520;DHT22;2272;49.226;8.108;2023-10-09T16:28:32;21.20;99.90
4520;DHT22;2272;49.226;8.108;2023-10-09T16:31:01;21.10;99.90
4520;DHT22;2272;49.226;8.108;2023-10-09T16:33:30;21.00;99.90
4520;DHT22;2272;49.226;8.108;2023-10-09T16:35:57;20.90;99.90
4520;DHT22;2272;49.226;8.108;2023-10-09T16:38:25;20.70;99.90
4520;DHT22;2272;49.226;8.108;2023-10-09T16:40:53;20.50;99.90
4520;DHT22;2272;49.226;8.108;2023-10-09T16:43:20;20.40;99.90
4520;DHT22;2272;49.226;8.108;2023-10-09T16:45:52;20.30;99.90
4520;DHT22;2272;49.226;8.108;2023-10-09T16:48:24;20.20;99.90
4520;DHT22;2272;49.226;8.108;2023-10-09T16:50:53;20.10;99.90
4520;DHT22;2272;49.226;8.108;2023-10-09T16:53:20;20.00;99.90
4520;DHT22;2272;49.226;8.108;2023-10-09T16:55:48;19.90;99.90
4520;DHT22;2272;49.226;8.108;2023-10-09T16:58:15;19.80;99.90
4520;DHT22;2272;49.226;8.108;2023-10-09T17:00:42;19.70;99.90
4520;DHT22;2272;49.226;8.108;2023-10-09T17:03:11;19.70;99.90
4520;DHT22;2272;49.226;8.108;2023-10-09T17:05:43;19.60;99.90
4520;DHT22;2272;49.226;8.108;2023-10-09T17:08:21;19.70;99.90
4520;DHT22;2272;49.226;8.108;2023-10-09T17:10:49;19.50;99.90
4520;DHT22;2272;49.226;8.108;2023-10-09T17:13:17;19.40;99.90
4520;DHT22;2272;49.226;8.108;2023-10-09T17:15:47;19.30;99.90
4520;DHT22;2272;49.226;8.108;2023-10-09T17:18:19;19.20;99.90
4520;DHT22;2272;49.226;8.108;2023-10-09T17:20:48;19.20;99.90
4520;DHT22;2272;49.226;8.108;2023-10-09T17:23:15;19.10;99.90
4520;DHT22;2272;49.226;8.108;2023-10-09T17:25:42;19.10;99.90
4520;DHT22;2272;49.226;8.108;2023-10-09T17:28:10;19.00;99.90
4520;DHT22;2272;49.226;8.108;2023-10-09T17:30:40;19.20;99.90
4520;DHT22;2272;49.226;8.108;2023-10-09T17:33:07;18.90;99.90
4520;DHT22;2272;49.226;8.108;2023-10-09T17:35:33;18.80;99.90
4520;DHT22;2272;49.226;8.108;2023-10-09T17:38:03;18.80;99.90
4520;DHT22;2272;49.226;8.108;2023-10-09T17:40:30;18.80;99.90
4520;DHT22;2272;49.226;8.108;2023-10-09T17:42:57;18.70;99.90
4520;DHT22;2272;49.226;8.108;2023-10-09T17:45:24;18.70;99.90
4520;DHT22;2272;49.226;8.108;2023-10-09T17:47:51;18.70;99.90
4520;DHT22;2272;49.226;8.108;2023-10-09T17:50:17;18.80;99.90
4520;DHT22;2272;49.226;8.108;2023-10-09T17:52:47;18.70;99.90
4520;DHT22;2272;49.226;8.108;2023-10-09T17:55:15;18.70;99.90
4520;DHT22;2272;49.226;8.108;2023-10-09T17:57:43;18.70;99.90
4520;DHT22;2272;49.226;8.108;2023-10-09T18:00:10;18.70;99.90
4520;DHT22;2272;49.226;8.108;2023-10-09T18:02:47;18.70;99.90
4520;DHT22;2272;49.226;8.108;2023-10-09T18:05:14;18.70;99.90
4520;DHT22;2272;49.226;8.108;2023-10-09T18:07:41;18.70;99.90
4520;DHT22;2272;49.226;8.108;2023-10-09T18:10:09;18.70;99.90
4520;DHT22;2272;49.226;8.108;2023-10-09T18:12:37;18.70;99.90
4520;DHT22;2272;49.226;8.108;2023-10-09T18:15:05;18.60;99.90
4520;DHT22;2272;49.226;8.108;2023-10-09T18:17:32;18.70;99.90
4520;DHT22;2272;49.226;8.108;2023-10-09T18:20:00;18.70;99.90
4520;DHT22;2272;49.226;8.108;2023-10-09T18:22:31;18.70;99.90
4520;DHT22;2272;49.226;8.108;2023-10-09T18:24:58;18.70;99.90
4520;DHT22;2272;49.226;8.108;2023-10-09T18:27:26;18.70;99.90
4520;DHT22;2272;49.226;8.108;2023-10-09T18:33:09;18.70;99.90
4520;DHT22;2272;49.226;8.108;2023-10-09T18:35:45;18.70;99.90
4520;DHT22;2272;49.226;8.108;2023-10-09T18:38:20;18.60;99.90
4520;DHT22;2272;49.226;8.108;2023-10-09T18:40:48;18.60;99.90
4520;DHT22;2272;49.226;8.108;2023-10-09T18:43:22;18.60;99.90
4520;DHT22;2272;49.226;8.108;2023-10-09T18:45:54;18.60;99.90
4520;DHT22;2272;49.226;8.108;2023-10-09T18:48:25;18.60;99.90
4520;DHT22;2272;49.226;8.108;2023-10-09T18:50:58;18.60;99.90
4520;DHT22;2272;49.226;8.108;2023-10-09T18:53:25;18.50;99.90
4520;DHT22;2272;49.226;8.108;2023-10-09T18:55:55;18.40;99.90
4520;DHT22;2272;49.226;8.108;2023-10-09T18:58:21;18.40;99.90
4520;DHT22;2272;49.226;8.108;2023-10-09T19:00:48;18.30;99.90
4520;DHT22;2272;49.226;8.108;2023-10-09T19:03:25;18.30;99.90
4520;DHT22;2272;49.226;8.108;2023-10-09T19:05:54;18.20;99.90
4520;DHT22;2272;49.226;8.108;2023-10-09T19:08:21;18.10;99.90
4520;DHT22;2272;49.226;8.108;2023-10-09T19:10:48;18.10;99.90
4520;DHT22;2272;49.226;8.108;2023-10-09T19:13:16;18.20;99.90
4520;DHT22;2272;49.226;8.108;2023-10-09T19:15:49;18.10;99.90
4520;DHT22;2272;49.226;8.108;2023-10-09T19:18:16;18.10;99.90
4520;DHT22;2272;49.226;8.108;2023-10-09T19:20:46;18.00;99.90
4520;DHT22;2272;49.226;8.108;2023-10-09T19:23:13;18.00;99.90
4520;DHT22;2272;49.226;8.108;2023-10-09T19:25:41;18.00;99.90
4520;DHT22;2272;49.226;8.108;2023-10-09T19:28:08;17.90;99.90
4520;DHT22;2272;49.226;8.108;2023-10-09T19:30:35;17.90;99.90
4520;DHT22;2272;49.226;8.108;2023-10-09T19:33:02;17.80;99.90
4520;DHT22;2272;49.226;8.108;2023-10-09T19:35:31;17.70;99.90
4520;DHT22;2272;49.226;8.108;2023-10-09T19:38:00;17.70;99.90
4520;DHT22;2272;49.226;8.108;2023-10-09T19:40:27;17.70;99.90
4520;DHT22;2272;49.226;8.108;2023-10-09T19:42:53;17.60;99.90
4520;DHT22;2272;49.226;8.108;2023-10-09T19:45:20;17.60;99.90
4520;DHT22;2272;49.226;8.108;2023-10-09T19:47:48;17.60;99.90
4520;DHT22;2272;49.226;8.108;2023-10-09T19:50:15;17.60;99.90
4520;DHT22;2272;49.226;8.108;2023-10-09T19:52:43;17.60;99.90
4520;DHT22;2272;49.226;8.108;2023-10-09T19:55:15;17.60;99.90
4520;DHT22;2272;49.226;8.108;2023-10-09T19:57:47;17.60;99.90
4520;DHT22;2272;49.226;8.108;2023-10-09T20:00:17;17.60;99.90
4520;DHT22;2272;49.226;8.108;2023-10-09T20:02:49;17.50;99.90
4520;DHT22;2272;49.226;8.108;2023-10-09T20:05:28;17.50;99.90
4520;DHT22;2272;49.226;8.108;2023-10-09T20:08:08;17.50;99.90
4520;DHT22;2272;49.226;8.108;2023-10-09T20:10:54;17.50;99.90
4520;DHT22;2272;49.226;8.108;2023-10-09T20:13:22;17.40;99.90
4520;DHT22;2272;49.226;8.108;2023-10-09T20:15:55;17.30;99.90
4520;DHT22;2272;49.226;8.108;2023-10-09T20:18:22;17.30;99.90
4520;DHT22;2272;49.226;8.108;2023-10-09T20:20:51;17.30;99.90
4520;DHT22;2272;49.226;8.108;2023-10-09T20:23:32;17.10;99.90
4520;DHT22;2272;49.226;8.108;2023-10-09T20:26:27;17.10;99.90
4520;DHT22;2272;49.226;8.108;2023-10-09T20:28:55;17.00;99.90
4520;DHT22;2272;49.226;8.108;2023-10-09T20:31:38;16.80;99.90
4520;DHT22;2272;49.226;8.108;2023-10-09T20:34:07;16.80;99.90
4520;DHT22;2272;49.226;8.108;2023-10-09T20:36:39;16.80;99.90
4520;DHT22;2272;49.226;8.108;2023-10-09T20:39:09;17.00;99.90
4520;DHT22;2272;49.226;8.108;2023-10-09T20:42:05;17.20;99.90
4520;DHT22;2272;49.226;8.108;2023-10-09T20:44:37;17.40;99.90
4520;DHT22;2272;49.226;8.108;2023-10-09T20:47:04;17.50;99.90
4520;DHT22;2272;49.226;8.108;2023-10-09T20:49:36;17.60;99.90
4520;DHT22;2272;49.226;8.108;2023-10-09T20:52:17;17.60;99.90
4520;DHT22;2272;49.226;8.108;2023-10-09T20:54:46;17.60;99.90
4520;DHT22;2272;49.226;8.108;2023-10-09T20:57:29;17.50;99.90
4520;DHT22;2272;49.226;8.108;2023-10-09T20:59:58;17.30;99.90
4520;DHT22;2272;49.226;8.108;2023-10-09T21:02:26;17.00;99.90
4520;DHT22;2272;49.226;8.108;2023-10-09T21:04:54;16.90;99.90
4520;DHT22;2272;49.226;8.108;2023-10-09T21:07:22;16.70;99.90
4520;DHT22;2272;49.226;8.108;2023-10-09T21:09:55;16.50;99.90
4520;DHT22;2272;49.226;8.108;2023-10-09T21:12:24;16.50;99.90
4520;DHT22;2272;49.226;8.108;2023-10-09T21:14:52;16.40;99.90
4520;DHT22;2272;49.226;8.108;2023-10-09T21:17:20;16.40;99.90
4520;DHT22;2272;49.226;8.108;2023-10-09T21:19:48;16.50;99.90
4520;DHT22;2272;49.226;8.108;2023-10-09T21:22:15;16.60;99.90
4520;DHT22;2272;49.226;8.108;2023-10-09T21:24:51;16.60;99.90
4520;DHT22;2272;49.226;8.108;2023-10-09T21:27:36;16.50;99.90
4520;DHT22;2272;49.226;8.108;2023-10-09T21:30:18;16.40;99.90
4520;DHT22;2272;49.226;8.108;2023-10-09T21:32:47;16.30;99.90
4520;DHT22;2272;49.226;8.108;2023-10-09T21:35:19;16.10;99.90
4520;DHT22;2272;49.226;8.108;2023-10-09T21:37:47;16.10;99.90
4520;DHT22;2272;49.226;8.108;2023-10-09T21:40:15;16.00;99.90
4520;DHT22;2272;49.226;8.108;2023-10-09T21:42:48;16.00;99.90
4520;DHT22;2272;49.226;8.108;2023-10-09T21:45:18;16.10;99.90
4520;DHT22;2272;49.226;8.108;2023-10-09T21:47:45;16.00;99.90
4520;DHT22;2272;49.226;8.108;2023-10-09T21:50:13;16.10;99.90
4520;DHT22;2272;49.226;8.108;2023-10-09T21:52:39;16.10;99.90
4520;DHT22;2272;49.226;8.108;2023-10-09T21:55:07;16.20;99.90
4520;DHT22;2272;49.226;8.108;2023-10-09T21:57:34;16.20;99.90
4520;DHT22;2272;49.226;8.108;2023-10-09T22:00:03;16.30;99.90
4520;DHT22;2272;49.226;8.108;2023-10-09T22:02:38;16.30;99.90
4520;DHT22;2272;49.226;8.108;2023-10-09T22:05:05;16.40;99.90
4520;DHT22;2272;49.226;8.108;2023-10-09T22:07:35;16.50;99.90
4520;DHT22;2272;49.226;8.108;2023-10-09T22:10:03;16.50;99.90
4520;DHT22;2272;49.226;8.108;2023-10-09T22:12:30;16.60;99.90
4520;DHT22;2272;49.226;8.108;2023-10-09T22:14:57;16.70;99.90
4520;DHT22;2272;49.226;8.108;2023-10-09T22:17:25;16.70;99.90
4520;DHT22;2272;49.226;8.108;2023-10-09T22:22:52;16.60;99.90
4520;DHT22;2272;49.226;8.108;2023-10-09T22:25:22;16.70;99.90
4520;DHT22;2272;49.226;8.108;2023-10-09T22:27:52;16.60;99.90
4520;DHT22;2272;49.226;8.108;2023-10-09T22:30:24;16.60;99.90
4520;DHT22;2272;49.226;8.108;2023-10-09T22:32:55;16.60;99.90
4520;DHT22;2272;49.226;8.108;2023-10-09T22:35:28;16.60;99.90
4520;DHT22;2272;49.226;8.108;2023-10-09T22:37:59;16.60;99.90
4520;DHT22;2272;49.226;8.108;2023-10-09T22:40:33;16.50;99.90
4520;DHT22;2272;49.226;8.108;2023-10-09T22:43:04;16.50;99.90
4520;DHT22;2272;49.226;8.108;2023-10-09T22:45:34;16.40;99.90
4520;DHT22;2272;49.226;8.108;2023-10-09T22:48:05;16.40;99.90
4520;DHT22;2272;49.226;8.108;2023-10-09T22:50:32;16.40;99.90
4520;DHT22;2272;49.226;8.108;2023-10-09T22:53:07;16.40;99.90
4520;DHT22;2272;49.226;8.108;2023-10-09T22:55:49;16.40;99.90
4520;DHT22;2272;49.226;8.108;2023-10-09T22:58:18;16.30;99.90
4520;DHT22;2272;49.226;8.108;2023-10-09T23:00:52;16.20;99.90
4520;DHT22;2272;49.226;8.108;2023-10-09T23:03:21;16.10;99.90
4520;DHT22;2272;49.226;8.108;2023-10-09T23:05:55;16.00;99.90
4520;DHT22;2272;49.226;8.108;2023-10-09T23:08:25;16.00;99.90
4520;DHT22;2272;49.226;8.108;2023-10-09T23:10:53;15.90;99.90
4520;DHT22;2272;49.226;8.108;2023-10-09T23:13:34;15.90;99.90
4520;DHT22;2272;49.226;8.108;2023-10-09T23:16:01;15.80;99.90
4520;DHT22;2272;49.226;8.108;2023-10-09T23:18:40;15.80;99.90
4520;DHT22;2272;49.226;8.108;2023-10-09T23:21:12;15.80;99.90
4520;DHT22;2272;49.226;8.108;2023-10-09T23:23:48;15.80;99.90
4520;DHT22;2272;49.226;8.108;2023-10-09T23:26:15;15.90;99.90
4520;DHT22;2272;49.226;8.108;2023-10-09T23:28:54;15.90;99.90
4520;DHT22;2272;49.226;8.108;2023-10-09T23:31:20;15.90;99.90
4520;DHT22;2272;49.226;8.108;2023-10-09T23:33:51;15.90;99.90
4520;DHT22;2272;49.226;8.108;2023-10-09T23:36:21;15.90;99.90
4520;DHT22;2272;49.226;8.108;2023-10-09T23:38:54;15.80;99.90
4520;DHT22;2272;49.226;8.108;2023-10-09T23:41:39;15.80;99.90
4520;DHT22;2272;49.226;8.108;2023-10-09T23:44:05;15.80;99.90
4520;DHT22;2272;49.226;8.108;2023-10-09T23:46:34;15.70;99.90
4520;DHT22;2272;49.226;8.108;2023-10-09T23:49:04;15.60;99.90
4520;DHT22;2272;49.226;8.108;2023-10-09T23:51:43;15.60;99.90
4520;DHT22;2272;49.226;8.108;2023-10-09T23:54:26;15.60;99.90
4520;DHT22;2272;49.226;8.108;2023-10-09T23:56:56;15.40;99.90
4520;DHT22;2272;49.226;8.108;2023-10-09T23:59:29;15.50;99.90
